sensor_id;sensor_type;location;lat;lon;timestamp;temperature;humidity
20881;DHT22;10600;53.096;8.802;2022-07-23T00:00:19;15.30;99.90
20881;DHT22;10600;53.096;8.802;2022-07-23T00:01:21;15.30;99.90
20881;DHT22;10600;53.096;8.802;2022-07-23T00:02:22;15.30;99.90
20881;DHT22;10600;53.096;8.802;2022-07-23T00:03:22;15.30;99.90
20881;DHT22;10600;53.096;8.802;2022-07-23T00:04:23;15.30;99.90
20881;DHT22;10600;53.096;8.802;2022-07-23T00:05:24;15.20;99.90
20881;DHT22;10600;53.096;8.802;2022-07-23T00:06:25;15.20;99.90
20881;DHT22;10600;53.096;8.802;2022-07-23T00:07:25;15.20;99.90
20881;DHT22;10600;53.096;8.802;2022-07-23T00:08:26;15.20;99.90
20881;DHT22;10600;53.096;8.802;2022-07-23T00:09:27;15.20;99.90
20881;DHT22;10600;53.096;8.802;2022-07-23T00:10:29;15.20;99.90
20881;DHT22;10600;53.096;8.802;2022-07-23T00:11:29;15.20;99.90
20881;DHT22;10600;53.096;8.802;2022-07-23T00:12:30;15.10;99.90
20881;DHT22;10600;53.096;8.802;2022-07-23T00:13:31;15.10;99.90
20881;DHT22;10600;53.096;8.802;2022-07-23T00:14:31;15.10;99.90
20881;DHT22;10600;53.096;8.802;2022-07-23T00:15:32;15.10;99.90
20881;DHT22;10600;53.096;8.802;2022-07-23T00:16:33;15.00;99.90
20881;DHT22;10600;53.096;8.802;2022-07-23T00:17:33;15.00;99.90
20881;DHT22;10600;53.096;8.802;2022-07-23T00:18:34;15.00;99.90
20881;DHT22;10600;53.096;8.802;2022-07-23T00:19:35;15.00;99.90
20881;DHT22;10600;53.096;8.802;2022-07-23T00:20:36;15.00;99.90
20881;DHT22;10600;53.096;8.802;2022-07-23T00:21:36;15.00;99.90
20881;DHT22;10600;53.096;8.802;2022-07-23T00:22:48;14.90;99.90
20881;DHT22;10600;53.096;8.802;2022-07-23T00:23:48;15.00;99.90
20881;DHT22;10600;53.096;8.802;2022-07-23T00:24:49;14.90;99.90
20881;DHT22;10600;53.096;8.802;2022-07-23T00:25:50;14.90;99.90
20881;DHT22;10600;53.096;8.802;2022-07-23T00:26:54;14.90;99.90
20881;DHT22;10600;53.096;8.802;2022-07-23T00:27:55;14.90;99.90
20881;DHT22;10600;53.096;8.802;2022-07-23T00:28:56;14.90;99.90
20881;DHT22;10600;53.096;8.802;2022-07-23T00:29:56;14.90;99.90
20881;DHT22;10600;53.096;8.802;2022-07-23T00:30:57;14.90;99.90
20881;DHT22;10600;53.096;8.802;2022-07-23T00:31:57;14.90;99.90
20881;DHT22;10600;53.096;8.802;2022-07-23T00:33:05;14.90;99.90
20881;DHT22;10600;53.096;8.802;2022-07-23T00:34:06;14.90;99.90
20881;DHT22;10600;53.096;8.802;2022-07-23T00:35:06;14.80;99.90
20881;DHT22;10600;53.096;8.802;2022-07-23T00:36:07;14.90;99.90
20881;DHT22;10600;53.096;8.802;2022-07-23T00:37:08;14.90;99.90
20881;DHT22;10600;53.096;8.802;2022-07-23T00:38:10;14.90;99.90
20881;DHT22;10600;53.096;8.802;2022-07-23T00:39:10;14.90;99.90
20881;DHT22;10600;53.096;8.802;2022-07-23T00:40:11;14.90;99.90
20881;DHT22;10600;53.096;8.802;2022-07-23T00:41:12;14.90;99.90
20881;DHT22;10600;53.096;8.802;2022-07-23T00:42:13;14.90;99.90
20881;DHT22;10600;53.096;8.802;2022-07-23T00:43:14;14.90;99.90
20881;DHT22;10600;53.096;8.802;2022-07-23T00:44:26;14.90;99.90
20881;DHT22;10600;53.096;8.802;2022-07-23T00:45:27;14.90;99.90
20881;DHT22;10600;53.096;8.802;2022-07-23T00:46:27;15.00;99.90
20881;DHT22;10600;53.096;8.802;2022-07-23T00:47:28;15.00;99.90
20881;DHT22;10600;53.096;8.802;2022-07-23T00:48:29;15.00;99.90
20881;DHT22;10600;53.096;8.802;2022-07-23T00:49:30;15.00;99.90
20881;DHT22;10600;53.096;8.802;2022-07-23T00:50:31;15.00;99.90
20881;DHT22;10600;53.096;8.802;2022-07-23T00:51:31;15.00;99.90
20881;DHT22;10600;53.096;8.802;2022-07-23T00:52:33;15.00;99.90
20881;DHT22;10600;53.096;8.802;2022-07-23T00:53:34;15.00;99.90
20881;DHT22;10600;53.096;8.802;2022-07-23T00:54:35;15.00;99.90
20881;DHT22;10600;53.096;8.802;2022-07-23T00:55:36;15.10;99.90
20881;DHT22;10600;53.096;8.802;2022-07-23T00:56:38;15.00;99.90
20881;DHT22;10600;53.096;8.802;2022-07-23T00:57:41;15.10;99.90
20881;DHT22;10600;53.096;8.802;2022-07-23T00:58:42;15.10;99.90
20881;DHT22;10600;53.096;8.802;2022-07-23T00:59:44;15.00;99.90
20881;DHT22;10600;53.096;8.802;2022-07-23T01:00:45;15.00;99.90
20881;DHT22;10600;53.096;8.802;2022-07-23T01:01:45;15.00;99.90
20881;DHT22;10600;53.096;8.802;2022-07-23T01:02:49;15.10;99.90
20881;DHT22;10600;53.096;8.802;2022-07-23T01:03:50;15.00;99.90
20881;DHT22;10600;53.096;8.802;2022-07-23T01:04:50;15.00;99.90
20881;DHT22;10600;53.096;8.802;2022-07-23T01:05:51;15.00;99.90
20881;DHT22;10600;53.096;8.802;2022-07-23T01:06:52;15.10;99.90
20881;DHT22;10600;53.096;8.802;2022-07-23T01:07:53;15.10;99.90
20881;DHT22;10600;53.096;8.802;2022-07-23T01:08:55;15.10;99.90
20881;DHT22;10600;53.096;8.802;2022-07-23T01:09:56;15.10;99.90
20881;DHT22;10600;53.096;8.802;2022-07-23T01:10:57;15.00;99.90
20881;DHT22;10600;53.096;8.802;2022-07-23T01:11:59;15.00;99.90
20881;DHT22;10600;53.096;8.802;2022-07-23T01:13:10;15.00;99.90
20881;DHT22;10600;53.096;8.802;2022-07-23T01:14:18;15.00;99.90
20881;DHT22;10600;53.096;8.802;2022-07-23T01:15:19;15.10;99.90
20881;DHT22;10600;53.096;8.802;2022-07-23T01:16:20;15.00;99.90
20881;DHT22;10600;53.096;8.802;2022-07-23T01:17:20;15.00;99.90
20881;DHT22;10600;53.096;8.802;2022-07-23T01:18:21;15.00;99.90
20881;DHT22;10600;53.096;8.802;2022-07-23T01:19:22;15.00;99.90
20881;DHT22;10600;53.096;8.802;2022-07-23T01:20:23;15.00;99.90
20881;DHT22;10600;53.096;8.802;2022-07-23T01:21:24;15.00;99.90
20881;DHT22;10600;53.096;8.802;2022-07-23T01:22:28;15.00;99.90
20881;DHT22;10600;53.096;8.802;2022-07-23T01:23:30;15.00;99.90
20881;DHT22;10600;53.096;8.802;2022-07-23T01:24:30;15.00;99.90
20881;DHT22;10600;53.096;8.802;2022-07-23T01:25:31;15.00;99.90
20881;DHT22;10600;53.096;8.802;2022-07-23T01:26:32;15.00;99.90
20881;DHT22;10600;53.096;8.802;2022-07-23T01:27:33;15.00;99.90
20881;DHT22;10600;53.096;8.802;2022-07-23T01:28:33;15.00;99.90
20881;DHT22;10600;53.096;8.802;2022-07-23T01:29:34;15.00;99.90
20881;DHT22;10600;53.096;8.802;2022-07-23T01:30:35;14.90;99.90
20881;DHT22;10600;53.096;8.802;2022-07-23T01:31:35;15.00;99.90
20881;DHT22;10600;53.096;8.802;2022-07-23T01:32:36;14.90;99.90
20881;DHT22;10600;53.096;8.802;2022-07-23T01:33:37;14.90;99.90
20881;DHT22;10600;53.096;8.802;2022-07-23T01:34:38;15.00;99.90
20881;DHT22;10600;53.096;8.802;2022-07-23T01:35:40;15.00;99.90
20881;DHT22;10600;53.096;8.802;2022-07-23T01:36:40;15.00;99.90
20881;DHT22;10600;53.096;8.802;2022-07-23T01:37:41;15.00;99.90
20881;DHT22;10600;53.096;8.802;2022-07-23T01:38:42;15.00;99.90
20881;DHT22;10600;53.096;8.802;2022-07-23T01:39:42;15.00;99.90
20881;DHT22;10600;53.096;8.802;2022-07-23T01:40:43;15.00;99.90
20881;DHT22;10600;53.096;8.802;2022-07-23T01:41:44;15.00;99.90
20881;DHT22;10600;53.096;8.802;2022-07-23T01:42:44;15.00;99.90
20881;DHT22;10600;53.096;8.802;2022-07-23T01:43:45;15.00;99.90
20881;DHT22;10600;53.096;8.802;2022-07-23T01:44:46;15.00;99.90
20881;DHT22;10600;53.096;8.802;2022-07-23T01:45:46;15.00;99.90
20881;DHT22;10600;53.096;8.802;2022-07-23T01:46:47;15.00;99.90
20881;DHT22;10600;53.096;8.802;2022-07-23T01:47:48;15.00;99.90
20881;DHT22;10600;53.096;8.802;2022-07-23T01:48:49;15.00;99.90
20881;DHT22;10600;53.096;8.802;2022-07-23T01:49:49;15.00;99.90
20881;DHT22;10600;53.096;8.802;2022-07-23T01:50:50;15.10;99.90
20881;DHT22;10600;53.096;8.802;2022-07-23T01:51:51;15.00;99.90
20881;DHT22;10600;53.096;8.802;2022-07-23T01:53:01;15.10;99.90
20881;DHT22;10600;53.096;8.802;2022-07-23T01:54:02;15.10;99.90
20881;DHT22;10600;53.096;8.802;2022-07-23T01:55:03;15.10;99.90
20881;DHT22;10600;53.096;8.802;2022-07-23T01:56:04;15.10;99.90
20881;DHT22;10600;53.096;8.802;2022-07-23T01:57:05;15.10;99.90
20881;DHT22;10600;53.096;8.802;2022-07-23T01:58:06;15.10;99.90
20881;DHT22;10600;53.096;8.802;2022-07-23T01:59:07;15.10;99.90
20881;DHT22;10600;53.096;8.802;2022-07-23T02:00:08;15.10;99.90
20881;DHT22;10600;53.096;8.802;2022-07-23T02:01:09;15.10;99.90
20881;DHT22;10600;53.096;8.802;2022-07-23T02:02:10;15.10;99.90
20881;DHT22;10600;53.096;8.802;2022-07-23T02:03:10;15.10;99.90
20881;DHT22;10600;53.096;8.802;2022-07-23T02:04:11;15.10;99.90
20881;DHT22;10600;53.096;8.802;2022-07-23T02:05:12;15.20;99.90
20881;DHT22;10600;53.096;8.802;2022-07-23T02:06:13;15.20;99.90
20881;DHT22;10600;53.096;8.802;2022-07-23T02:07:14;15.20;99.90
20881;DHT22;10600;53.096;8.802;2022-07-23T02:08:14;15.20;99.90
20881;DHT22;10600;53.096;8.802;2022-07-23T02:09:15;15.20;99.90
20881;DHT22;10600;53.096;8.802;2022-07-23T02:10:16;15.20;99.90
20881;DHT22;10600;53.096;8.802;2022-07-23T02:11:17;15.20;99.90
20881;DHT22;10600;53.096;8.802;2022-07-23T02:12:18;15.20;99.90
20881;DHT22;10600;53.096;8.802;2022-07-23T02:13:18;15.20;99.90
20881;DHT22;10600;53.096;8.802;2022-07-23T02:14:19;15.20;99.90
20881;DHT22;10600;53.096;8.802;2022-07-23T02:15:20;15.20;99.90
20881;DHT22;10600;53.096;8.802;2022-07-23T02:16:21;15.20;99.90
20881;DHT22;10600;53.096;8.802;2022-07-23T02:17:21;15.30;99.90
20881;DHT22;10600;53.096;8.802;2022-07-23T02:18:22;15.20;99.90
20881;DHT22;10600;53.096;8.802;2022-07-23T02:19:23;15.30;99.90
20881;DHT22;10600;53.096;8.802;2022-07-23T02:20:23;15.30;99.90
20881;DHT22;10600;53.096;8.802;2022-07-23T02:21:25;15.30;99.90
20881;DHT22;10600;53.096;8.802;2022-07-23T02:22:25;15.30;99.90
20881;DHT22;10600;53.096;8.802;2022-07-23T02:23:26;15.30;99.90
20881;DHT22;10600;53.096;8.802;2022-07-23T02:24:27;15.30;99.90
20881;DHT22;10600;53.096;8.802;2022-07-23T02:25:27;15.30;99.90
20881;DHT22;10600;53.096;8.802;2022-07-23T02:26:28;15.30;99.90
20881;DHT22;10600;53.096;8.802;2022-07-23T02:27:29;15.30;99.90
20881;DHT22;10600;53.096;8.802;2022-07-23T02:28:30;15.30;99.90
20881;DHT22;10600;53.096;8.802;2022-07-23T02:29:30;15.30;99.90
20881;DHT22;10600;53.096;8.802;2022-07-23T02:30:31;15.30;99.90
20881;DHT22;10600;53.096;8.802;2022-07-23T02:31:32;15.30;99.90
20881;DHT22;10600;53.096;8.802;2022-07-23T02:32:34;15.30;99.90
20881;DHT22;10600;53.096;8.802;2022-07-23T02:33:35;15.30;99.90
20881;DHT22;10600;53.096;8.802;2022-07-23T02:34:35;15.30;99.90
20881;DHT22;10600;53.096;8.802;2022-07-23T02:35:36;15.30;99.90
20881;DHT22;10600;53.096;8.802;2022-07-23T02:36:37;15.30;99.90
20881;DHT22;10600;53.096;8.802;2022-07-23T02:37:39;15.30;99.90
20881;DHT22;10600;53.096;8.802;2022-07-23T02:38:39;15.30;99.90
20881;DHT22;10600;53.096;8.802;2022-07-23T02:39:40;15.30;99.90
20881;DHT22;10600;53.096;8.802;2022-07-23T02:40:41;15.20;99.90
20881;DHT22;10600;53.096;8.802;2022-07-23T02:41:41;15.20;99.90
20881;DHT22;10600;53.096;8.802;2022-07-23T02:42:42;15.20;99.90
20881;DHT22;10600;53.096;8.802;2022-07-23T02:43:43;15.30;99.90
20881;DHT22;10600;53.096;8.802;2022-07-23T02:44:44;15.30;99.90
20881;DHT22;10600;53.096;8.802;2022-07-23T02:45:45;15.20;99.90
20881;DHT22;10600;53.096;8.802;2022-07-23T02:46:45;15.30;99.90
20881;DHT22;10600;53.096;8.802;2022-07-23T02:47:46;15.20;99.90
20881;DHT22;10600;53.096;8.802;2022-07-23T02:48:47;15.20;99.90
20881;DHT22;10600;53.096;8.802;2022-07-23T02:49:47;15.20;99.90
20881;DHT22;10600;53.096;8.802;2022-07-23T02:50:48;15.20;99.90
20881;DHT22;10600;53.096;8.802;2022-07-23T02:51:49;15.20;99.90
20881;DHT22;10600;53.096;8.802;2022-07-23T02:52:50;15.20;99.90
20881;DHT22;10600;53.096;8.802;2022-07-23T02:53:50;15.20;99.90
20881;DHT22;10600;53.096;8.802;2022-07-23T02:54:51;15.20;99.90
20881;DHT22;10600;53.096;8.802;2022-07-23T02:55:52;15.20;99.90
20881;DHT22;10600;53.096;8.802;2022-07-23T02:56:52;15.20;99.90
20881;DHT22;10600;53.096;8.802;2022-07-23T02:57:53;15.20;99.90
20881;DHT22;10600;53.096;8.802;2022-07-23T02:58:54;15.20;99.90
20881;DHT22;10600;53.096;8.802;2022-07-23T02:59:55;15.20;99.90
20881;DHT22;10600;53.096;8.802;2022-07-23T03:00:55;15.20;99.90
20881;DHT22;10600;53.096;8.802;2022-07-23T03:01:56;15.20;99.90
20881;DHT22;10600;53.096;8.802;2022-07-23T03:02:57;15.20;99.90
20881;DHT22;10600;53.096;8.802;2022-07-23T03:03:57;15.20;99.90
20881;DHT22;10600;53.096;8.802;2022-07-23T03:04:58;15.20;99.90
20881;DHT22;10600;53.096;8.802;2022-07-23T03:05:59;15.20;99.90
20881;DHT22;10600;53.096;8.802;2022-07-23T03:06:59;15.20;99.90
20881;DHT22;10600;53.096;8.802;2022-07-23T03:08:00;15.20;99.90
20881;DHT22;10600;53.096;8.802;2022-07-23T03:09:02;15.10;99.90
20881;DHT22;10600;53.096;8.802;2022-07-23T03:10:03;15.10;99.90
20881;DHT22;10600;53.096;8.802;2022-07-23T03:11:03;15.10;99.90
20881;DHT22;10600;53.096;8.802;2022-07-23T03:12:05;15.10;99.90
20881;DHT22;10600;53.096;8.802;2022-07-23T03:13:05;15.10;99.90
20881;DHT22;10600;53.096;8.802;2022-07-23T03:14:06;15.10;99.90
20881;DHT22;10600;53.096;8.802;2022-07-23T03:15:08;15.10;99.90
20881;DHT22;10600;53.096;8.802;2022-07-23T03:16:09;15.10;99.90
20881;DHT22;10600;53.096;8.802;2022-07-23T03:17:10;15.10;99.90
20881;DHT22;10600;53.096;8.802;2022-07-23T03:18:10;15.10;99.90
20881;DHT22;10600;53.096;8.802;2022-07-23T03:19:20;15.10;99.90
20881;DHT22;10600;53.096;8.802;2022-07-23T03:20:21;15.10;99.90
20881;DHT22;10600;53.096;8.802;2022-07-23T03:21:22;15.10;99.90
20881;DHT22;10600;53.096;8.802;2022-07-23T03:22:22;15.10;99.90
20881;DHT22;10600;53.096;8.802;2022-07-23T03:23:23;15.10;99.90
20881;DHT22;10600;53.096;8.802;2022-07-23T03:24:24;15.10;99.90
20881;DHT22;10600;53.096;8.802;2022-07-23T03:25:44;15.00;99.90
20881;DHT22;10600;53.096;8.802;2022-07-23T03:26:47;15.00;99.90
20881;DHT22;10600;53.096;8.802;2022-07-23T03:27:47;15.00;99.90
20881;DHT22;10600;53.096;8.802;2022-07-23T03:28:48;15.00;99.90
20881;DHT22;10600;53.096;8.802;2022-07-23T03:29:53;15.00;99.90
20881;DHT22;10600;53.096;8.802;2022-07-23T03:30:54;15.00;99.90
20881;DHT22;10600;53.096;8.802;2022-07-23T03:31:55;15.00;99.90
20881;DHT22;10600;53.096;8.802;2022-07-23T03:32:55;15.00;99.90
20881;DHT22;10600;53.096;8.802;2022-07-23T03:33:56;14.90;99.90
20881;DHT22;10600;53.096;8.802;2022-07-23T03:34:57;14.90;99.90
20881;DHT22;10600;53.096;8.802;2022-07-23T03:35:58;14.90;99.90
20881;DHT22;10600;53.096;8.802;2022-07-23T03:36:59;14.90;99.90
20881;DHT22;10600;53.096;8.802;2022-07-23T03:37:59;14.80;99.90
20881;DHT22;10600;53.096;8.802;2022-07-23T03:39:00;14.80;99.90
20881;DHT22;10600;53.096;8.802;2022-07-23T03:40:01;14.80;99.90
20881;DHT22;10600;53.096;8.802;2022-07-23T03:41:01;14.80;99.90
20881;DHT22;10600;53.096;8.802;2022-07-23T03:42:02;14.80;99.90
20881;DHT22;10600;53.096;8.802;2022-07-23T03:43:03;14.80;99.90
20881;DHT22;10600;53.096;8.802;2022-07-23T03:44:04;14.80;99.90
20881;DHT22;10600;53.096;8.802;2022-07-23T03:45:05;14.80;99.90
20881;DHT22;10600;53.096;8.802;2022-07-23T03:46:06;14.70;99.90
20881;DHT22;10600;53.096;8.802;2022-07-23T03:47:06;14.70;99.90
20881;DHT22;10600;53.096;8.802;2022-07-23T03:48:07;14.70;99.90
20881;DHT22;10600;53.096;8.802;2022-07-23T03:49:08;14.60;99.90
20881;DHT22;10600;53.096;8.802;2022-07-23T03:50:09;14.70;99.90
20881;DHT22;10600;53.096;8.802;2022-07-23T03:51:09;14.70;99.90
20881;DHT22;10600;53.096;8.802;2022-07-23T03:52:10;14.60;99.90
20881;DHT22;10600;53.096;8.802;2022-07-23T03:53:11;14.60;99.90
20881;DHT22;10600;53.096;8.802;2022-07-23T03:54:12;14.60;99.90
20881;DHT22;10600;53.096;8.802;2022-07-23T03:55:12;14.60;99.90
20881;DHT22;10600;53.096;8.802;2022-07-23T03:56:13;14.60;99.90
20881;DHT22;10600;53.096;8.802;2022-07-23T03:57:14;14.50;99.90
20881;DHT22;10600;53.096;8.802;2022-07-23T03:58:15;14.50;99.90
20881;DHT22;10600;53.096;8.802;2022-07-23T03:59:16;14.50;99.90
20881;DHT22;10600;53.096;8.802;2022-07-23T04:00:16;14.50;99.90
20881;DHT22;10600;53.096;8.802;2022-07-23T04:01:17;14.50;99.90
20881;DHT22;10600;53.096;8.802;2022-07-23T04:02:18;14.50;99.90
20881;DHT22;10600;53.096;8.802;2022-07-23T04:03:19;14.50;99.90
20881;DHT22;10600;53.096;8.802;2022-07-23T04:04:19;14.50;99.90
20881;DHT22;10600;53.096;8.802;2022-07-23T04:05:20;14.50;99.90
20881;DHT22;10600;53.096;8.802;2022-07-23T04:06:21;14.50;99.90
20881;DHT22;10600;53.096;8.802;2022-07-23T04:07:21;14.50;99.90
20881;DHT22;10600;53.096;8.802;2022-07-23T04:08:22;14.50;99.90
20881;DHT22;10600;53.096;8.802;2022-07-23T04:09:23;14.50;99.90
20881;DHT22;10600;53.096;8.802;2022-07-23T04:10:23;14.50;99.90
20881;DHT22;10600;53.096;8.802;2022-07-23T04:11:24;14.50;99.90
20881;DHT22;10600;53.096;8.802;2022-07-23T04:12:25;14.50;99.90
20881;DHT22;10600;53.096;8.802;2022-07-23T04:13:26;14.50;99.90
20881;DHT22;10600;53.096;8.802;2022-07-23T04:14:26;14.50;99.90
20881;DHT22;10600;53.096;8.802;2022-07-23T04:15:27;14.50;99.90
20881;DHT22;10600;53.096;8.802;2022-07-23T04:16:28;14.50;99.90
20881;DHT22;10600;53.096;8.802;2022-07-23T04:17:28;14.50;99.90
20881;DHT22;10600;53.096;8.802;2022-07-23T04:18:30;14.50;99.90
20881;DHT22;10600;53.096;8.802;2022-07-23T04:19:31;14.50;99.90
20881;DHT22;10600;53.096;8.802;2022-07-23T04:20:31;14.50;99.90
20881;DHT22;10600;53.096;8.802;2022-07-23T04:21:32;14.50;99.90
20881;DHT22;10600;53.096;8.802;2022-07-23T04:22:33;14.50;99.90
20881;DHT22;10600;53.096;8.802;2022-07-23T04:23:33;14.50;99.90
20881;DHT22;10600;53.096;8.802;2022-07-23T04:24:34;14.50;99.90
20881;DHT22;10600;53.096;8.802;2022-07-23T04:25:35;14.50;99.90
20881;DHT22;10600;53.096;8.802;2022-07-23T04:26:36;14.50;99.90
20881;DHT22;10600;53.096;8.802;2022-07-23T04:27:36;14.50;99.90
20881;DHT22;10600;53.096;8.802;2022-07-23T04:28:37;14.50;99.90
20881;DHT22;10600;53.096;8.802;2022-07-23T04:29:38;14.50;99.90
20881;DHT22;10600;53.096;8.802;2022-07-23T04:30:39;14.50;99.90
20881;DHT22;10600;53.096;8.802;2022-07-23T04:31:40;14.50;99.90
20881;DHT22;10600;53.096;8.802;2022-07-23T04:32:40;14.50;99.90
20881;DHT22;10600;53.096;8.802;2022-07-23T04:33:41;14.50;99.90
20881;DHT22;10600;53.096;8.802;2022-07-23T04:34:42;14.50;99.90
20881;DHT22;10600;53.096;8.802;2022-07-23T04:35:42;14.50;99.90
20881;DHT22;10600;53.096;8.802;2022-07-23T04:36:43;14.50;99.90
20881;DHT22;10600;53.096;8.802;2022-07-23T04:37:44;14.50;99.90
20881;DHT22;10600;53.096;8.802;2022-07-23T04:38:44;14.50;99.90
20881;DHT22;10600;53.096;8.802;2022-07-23T04:39:45;14.50;99.90
20881;DHT22;10600;53.096;8.802;2022-07-23T04:40:46;14.50;99.90
20881;DHT22;10600;53.096;8.802;2022-07-23T04:41:47;14.50;99.90
20881;DHT22;10600;53.096;8.802;2022-07-23T04:42:47;14.50;99.90
20881;DHT22;10600;53.096;8.802;2022-07-23T04:43:57;14.50;99.90
20881;DHT22;10600;53.096;8.802;2022-07-23T04:44:57;14.40;99.90
20881;DHT22;10600;53.096;8.802;2022-07-23T04:45:58;14.50;99.90
20881;DHT22;10600;53.096;8.802;2022-07-23T04:46:58;14.50;99.90
20881;DHT22;10600;53.096;8.802;2022-07-23T04:47:59;14.50;99.90
20881;DHT22;10600;53.096;8.802;2022-07-23T04:49:00;14.40;99.90
20881;DHT22;10600;53.096;8.802;2022-07-23T04:50:00;14.40;99.90
20881;DHT22;10600;53.096;8.802;2022-07-23T04:51:01;14.40;99.90
20881;DHT22;10600;53.096;8.802;2022-07-23T04:52:02;14.40;99.90
20881;DHT22;10600;53.096;8.802;2022-07-23T04:53:03;14.40;99.90
20881;DHT22;10600;53.096;8.802;2022-07-23T04:54:04;14.40;99.90
20881;DHT22;10600;53.096;8.802;2022-07-23T04:55:05;14.40;99.90
20881;DHT22;10600;53.096;8.802;2022-07-23T04:56:06;14.40;99.90
20881;DHT22;10600;53.096;8.802;2022-07-23T04:57:07;14.40;99.90
20881;DHT22;10600;53.096;8.802;2022-07-23T04:58:07;14.40;99.90
20881;DHT22;10600;53.096;8.802;2022-07-23T04:59:08;14.40;99.90
20881;DHT22;10600;53.096;8.802;2022-07-23T05:00:09;14.40;99.90
20881;DHT22;10600;53.096;8.802;2022-07-23T05:01:10;14.50;99.90
20881;DHT22;10600;53.096;8.802;2022-07-23T05:02:11;14.50;99.90
20881;DHT22;10600;53.096;8.802;2022-07-23T05:03:12;14.50;99.90
20881;DHT22;10600;53.096;8.802;2022-07-23T05:04:13;14.50;99.90
20881;DHT22;10600;53.096;8.802;2022-07-23T05:05:13;14.50;99.90
20881;DHT22;10600;53.096;8.802;2022-07-23T05:06:15;14.50;99.90
20881;DHT22;10600;53.096;8.802;2022-07-23T05:07:15;14.60;99.90
20881;DHT22;10600;53.096;8.802;2022-07-23T05:08:16;14.60;99.90
20881;DHT22;10600;53.096;8.802;2022-07-23T05:09:17;14.60;99.90
20881;DHT22;10600;53.096;8.802;2022-07-23T05:10:17;14.60;99.90
20881;DHT22;10600;53.096;8.802;2022-07-23T05:11:18;14.60;99.90
20881;DHT22;10600;53.096;8.802;2022-07-23T05:12:19;14.60;99.90
20881;DHT22;10600;53.096;8.802;2022-07-23T05:13:19;14.60;99.90
20881;DHT22;10600;53.096;8.802;2022-07-23T05:14:20;14.70;99.90
20881;DHT22;10600;53.096;8.802;2022-07-23T05:15:21;14.70;99.90
20881;DHT22;10600;53.096;8.802;2022-07-23T05:16:22;14.70;99.90
20881;DHT22;10600;53.096;8.802;2022-07-23T05:17:22;14.70;99.90
20881;DHT22;10600;53.096;8.802;2022-07-23T05:18:23;14.80;99.90
20881;DHT22;10600;53.096;8.802;2022-07-23T05:19:24;14.80;99.90
20881;DHT22;10600;53.096;8.802;2022-07-23T05:20:25;14.80;99.90
20881;DHT22;10600;53.096;8.802;2022-07-23T05:21:26;14.80;99.90
20881;DHT22;10600;53.096;8.802;2022-07-23T05:22:26;14.90;99.90
20881;DHT22;10600;53.096;8.802;2022-07-23T05:23:27;14.90;99.90
20881;DHT22;10600;53.096;8.802;2022-07-23T05:24:28;14.90;99.90
20881;DHT22;10600;53.096;8.802;2022-07-23T05:25:29;15.00;99.90
20881;DHT22;10600;53.096;8.802;2022-07-23T05:26:30;15.00;99.90
20881;DHT22;10600;53.096;8.802;2022-07-23T05:27:30;15.00;99.90
20881;DHT22;10600;53.096;8.802;2022-07-23T05:28:31;15.00;99.90
20881;DHT22;10600;53.096;8.802;2022-07-23T05:29:32;15.00;99.90
20881;DHT22;10600;53.096;8.802;2022-07-23T05:30:32;15.00;99.90
20881;DHT22;10600;53.096;8.802;2022-07-23T05:31:33;15.10;99.90
20881;DHT22;10600;53.096;8.802;2022-07-23T05:32:34;15.10;99.90
20881;DHT22;10600;53.096;8.802;2022-07-23T05:33:37;15.20;99.90
20881;DHT22;10600;53.096;8.802;2022-07-23T05:34:37;15.20;99.90
20881;DHT22;10600;53.096;8.802;2022-07-23T05:35:38;15.20;99.90
20881;DHT22;10600;53.096;8.802;2022-07-23T05:36:38;15.20;99.90
20881;DHT22;10600;53.096;8.802;2022-07-23T05:37:40;15.20;99.90
20881;DHT22;10600;53.096;8.802;2022-07-23T05:38:40;15.30;99.90
20881;DHT22;10600;53.096;8.802;2022-07-23T05:39:41;15.30;99.90
20881;DHT22;10600;53.096;8.802;2022-07-23T05:40:42;15.30;99.90
20881;DHT22;10600;53.096;8.802;2022-07-23T05:41:42;15.30;99.90
20881;DHT22;10600;53.096;8.802;2022-07-23T05:42:43;15.30;99.90
20881;DHT22;10600;53.096;8.802;2022-07-23T05:43:44;15.30;99.90
20881;DHT22;10600;53.096;8.802;2022-07-23T05:44:44;15.30;99.90
20881;DHT22;10600;53.096;8.802;2022-07-23T05:45:45;15.40;99.90
20881;DHT22;10600;53.096;8.802;2022-07-23T05:46:46;15.40;99.90
20881;DHT22;10600;53.096;8.802;2022-07-23T05:47:47;15.50;99.90
20881;DHT22;10600;53.096;8.802;2022-07-23T05:48:48;15.50;99.90
20881;DHT22;10600;53.096;8.802;2022-07-23T05:49:52;15.60;99.90
20881;DHT22;10600;53.096;8.802;2022-07-23T05:50:52;15.70;99.90
20881;DHT22;10600;53.096;8.802;2022-07-23T05:51:53;15.70;99.90
20881;DHT22;10600;53.096;8.802;2022-07-23T05:52:54;15.70;99.90
20881;DHT22;10600;53.096;8.802;2022-07-23T05:53:55;15.80;99.90
20881;DHT22;10600;53.096;8.802;2022-07-23T05:54:55;15.80;99.90
20881;DHT22;10600;53.096;8.802;2022-07-23T05:55:56;15.80;99.90
20881;DHT22;10600;53.096;8.802;2022-07-23T05:56:57;15.90;99.90
20881;DHT22;10600;53.096;8.802;2022-07-23T05:57:58;15.90;99.90
20881;DHT22;10600;53.096;8.802;2022-07-23T05:58:59;16.00;99.90
20881;DHT22;10600;53.096;8.802;2022-07-23T06:00:00;16.00;99.90
20881;DHT22;10600;53.096;8.802;2022-07-23T06:01:00;16.10;99.90
20881;DHT22;10600;53.096;8.802;2022-07-23T06:02:01;16.10;99.90
20881;DHT22;10600;53.096;8.802;2022-07-23T06:03:02;16.20;99.90
20881;DHT22;10600;53.096;8.802;2022-07-23T06:04:02;16.20;99.90
20881;DHT22;10600;53.096;8.802;2022-07-23T06:05:03;16.20;99.90
20881;DHT22;10600;53.096;8.802;2022-07-23T06:06:05;16.20;99.90
20881;DHT22;10600;53.096;8.802;2022-07-23T06:07:05;16.30;99.90
20881;DHT22;10600;53.096;8.802;2022-07-23T06:08:06;16.30;99.90
20881;DHT22;10600;53.096;8.802;2022-07-23T06:09:07;16.30;99.90
20881;DHT22;10600;53.096;8.802;2022-07-23T06:10:13;16.30;99.90
20881;DHT22;10600;53.096;8.802;2022-07-23T06:11:14;16.30;99.90
20881;DHT22;10600;53.096;8.802;2022-07-23T06:12:18;16.40;99.90
20881;DHT22;10600;53.096;8.802;2022-07-23T06:13:19;16.40;99.90
20881;DHT22;10600;53.096;8.802;2022-07-23T06:14:19;16.40;99.90
20881;DHT22;10600;53.096;8.802;2022-07-23T06:15:20;16.50;99.90
20881;DHT22;10600;53.096;8.802;2022-07-23T06:16:21;16.60;99.90
20881;DHT22;10600;53.096;8.802;2022-07-23T06:17:21;16.60;99.90
20881;DHT22;10600;53.096;8.802;2022-07-23T06:18:22;16.60;99.90
20881;DHT22;10600;53.096;8.802;2022-07-23T06:19:24;16.60;99.90
20881;DHT22;10600;53.096;8.802;2022-07-23T06:20:24;16.60;99.90
20881;DHT22;10600;53.096;8.802;2022-07-23T06:21:25;16.60;99.90
20881;DHT22;10600;53.096;8.802;2022-07-23T06:22:26;16.60;99.90
20881;DHT22;10600;53.096;8.802;2022-07-23T06:23:27;16.50;99.90
20881;DHT22;10600;53.096;8.802;2022-07-23T06:24:28;16.50;99.90
20881;DHT22;10600;53.096;8.802;2022-07-23T06:25:29;16.50;99.90